Archival Weather

Half Moon Bay

Half Moon Bay, California (KHAF)

Report from: Saturday, September 30, 2023 12:15 PM PDT
Current time: Friday, December 1, 2023 7:25 PM PST

Current weather – Weather history – Daily summaries
Weather forecast

Present weatherMist
Temperature15.0°C (59.0°F)
Dew point13.0°C (55.4°F)
Winds 11 kts (5.7 m/s, 12.7 mph) North-Northwest (330°)
Visibility3 mi. (4.8 km)
Clouds Ceiling: Broken clouds 1,100 ft. (335 m)
Broken clouds 1,700 ft. (518 m)
Altimeter29.83 in.Hg (1010 mB)
Relative humidity88 %
Density altitude313 ft. (96 m)
Remarks Fully automated report
Automated weather observing station with precipitation discriminator
Flight conditions Marginal Visual Meteorological Conditions
Raw dataKHAF 301915Z AUTO 33011KT 3SM BR BKN011 BKN017 15/13 A2983 RMK AO2
An error has occurred. This application may no longer respond until reloaded. Reload 🗙